createdAt,value
2018-03-22T00:01:07.069Z,86.60
2018-03-22T00:03:36.475Z,87.30
2018-03-22T00:06:04.739Z,87.30
2018-03-22T00:08:33.004Z,88.00
2018-03-22T00:11:02.067Z,89.40
2018-03-22T00:13:30.435Z,89.40
2018-03-22T00:15:58.803Z,89.60
2018-03-22T00:18:27.054Z,90.00
2018-03-22T00:20:55.386Z,90.40
2018-03-22T00:23:23.651Z,90.60
2018-03-22T00:25:51.907Z,90.80
2018-03-22T00:28:20.185Z,91.30
2018-03-22T00:30:48.498Z,91.20
2018-03-22T00:33:16.785Z,91.50
2018-03-22T00:35:45.041Z,91.90
2018-03-22T00:38:13.314Z,92.30
2018-03-22T00:40:41.590Z,92.50
2018-03-22T00:43:09.931Z,92.80
2018-03-22T00:45:38.158Z,93.00
2018-03-22T00:48:06.953Z,93.20
2018-03-22T00:50:35.374Z,93.40
2018-03-22T00:53:04.552Z,93.50
2018-03-22T00:55:34.200Z,93.70
2018-03-22T00:58:02.642Z,93.70
2018-03-22T01:00:30.917Z,93.80
2018-03-22T01:02:59.764Z,93.80
2018-03-22T01:05:28.127Z,93.80
2018-03-22T01:07:56.364Z,93.80
2018-03-22T01:10:24.633Z,93.70
2018-03-22T01:12:53.666Z,93.40
2018-03-22T01:15:21.957Z,93.40
2018-03-22T01:17:50.219Z,93.60
2018-03-22T01:20:18.502Z,93.70
2018-03-22T01:22:46.755Z,93.90
2018-03-22T01:25:15.882Z,93.70
2018-03-22T01:27:44.134Z,93.70
2018-03-22T01:30:25.195Z,93.40
2018-03-22T01:32:53.438Z,93.40
2018-03-22T01:35:21.719Z,93.30
2018-03-22T01:37:49.974Z,93.10
2018-03-22T01:40:18.246Z,93.10
2018-03-22T01:42:46.494Z,93.10
2018-03-22T01:45:14.803Z,93.20
2018-03-22T01:47:43.822Z,93.30
2018-03-22T01:50:12.082Z,93.30
2018-03-22T01:52:52.323Z,93.40
2018-03-22T01:55:20.599Z,93.60
2018-03-22T01:57:48.883Z,94.00
2018-03-22T02:00:17.197Z,93.80
2018-03-22T02:02:45.507Z,94.00
2018-03-22T02:05:13.917Z,94.20
2018-03-22T02:07:42.178Z,94.30
2018-03-22T02:10:10.495Z,94.40
2018-03-22T02:12:38.729Z,94.60
2018-03-22T02:15:06.997Z,94.60
2018-03-22T02:17:35.254Z,94.70
2018-03-22T02:20:03.507Z,95.00
2018-03-22T02:22:31.784Z,95.20
2018-03-22T02:25:00.043Z,95.40
2018-03-22T02:27:28.381Z,95.20
2018-03-22T02:29:57.421Z,95.50
2018-03-22T02:32:25.710Z,95.50
2018-03-22T02:34:54.004Z,95.70
2018-03-22T02:37:22.275Z,95.80
2018-03-22T02:39:50.536Z,96.00
2018-03-22T02:42:18.817Z,96.20
2018-03-22T02:44:47.101Z,96.20
2018-03-22T02:47:16.141Z,96.40
2018-03-22T02:49:45.161Z,96.30
2018-03-22T02:52:14.188Z,96.40
2018-03-22T02:54:42.511Z,96.40
2018-03-22T02:57:10.850Z,96.50
2018-03-22T02:59:39.173Z,96.50
2018-03-22T03:02:07.439Z,96.50
2018-03-22T03:04:35.711Z,96.60
2018-03-22T03:07:04.006Z,96.70
2018-03-22T03:09:32.275Z,96.90
2018-03-22T03:12:00.533Z,97.00
2018-03-22T03:14:28.807Z,97.10
2018-03-22T03:16:57.053Z,97.20
2018-03-22T03:19:26.123Z,97.80
2018-03-22T03:21:54.395Z,97.80
2018-03-22T03:24:22.666Z,97.90
2018-03-22T03:26:50.937Z,97.90
2018-03-22T03:29:19.238Z,98.00
2018-03-22T03:31:47.507Z,98.20
2018-03-22T03:34:15.781Z,98.30
2018-03-22T03:36:44.079Z,98.40
2018-03-22T03:39:12.347Z,98.30
2018-03-22T03:41:40.593Z,98.30
2018-03-22T03:44:09.634Z,98.10
2018-03-22T03:46:37.885Z,98.00
2018-03-22T03:49:06.321Z,98.20
2018-03-22T03:51:35.769Z,98.30
2018-03-22T03:54:04.274Z,98.20
2018-03-22T03:56:32.593Z,98.40
2018-03-22T03:59:00.857Z,98.50
2018-03-22T04:01:29.130Z,98.50
2018-03-22T04:03:57.392Z,98.40
2018-03-22T04:06:27.294Z,98.20
2018-03-22T04:08:56.352Z,98.30
2018-03-22T04:11:24.606Z,98.30
2018-03-22T04:13:52.867Z,98.10
2018-03-22T04:16:21.130Z,98.00
2018-03-22T04:18:50.174Z,97.80
2018-03-22T04:21:18.448Z,97.80
2018-03-22T04:23:46.747Z,97.90
2018-03-22T04:26:15.007Z,97.80
2018-03-22T04:28:43.267Z,97.80
2018-03-22T04:31:12.295Z,97.90
2018-03-22T04:33:40.543Z,97.80
2018-03-22T04:36:09.581Z,97.70
2018-03-22T04:38:37.834Z,97.70
2018-03-22T04:41:06.122Z,97.60
2018-03-22T04:43:34.374Z,97.80
2018-03-22T04:46:02.644Z,97.70
2018-03-22T04:48:32.445Z,97.70
2018-03-22T04:51:00.715Z,97.70
2018-03-22T04:53:28.966Z,97.90
2018-03-22T04:55:57.250Z,98.00
2018-03-22T04:58:25.503Z,98.20
2018-03-22T05:00:54.527Z,98.60
2018-03-22T05:03:22.803Z,98.50
2018-03-22T05:05:51.116Z,98.50
2018-03-22T05:08:19.388Z,98.60
2018-03-22T05:10:47.649Z,98.50
2018-03-22T05:13:15.922Z,98.50
2018-03-22T05:15:44.321Z,98.50
2018-03-22T05:18:12.585Z,98.50
2018-03-22T05:20:40.840Z,98.40
2018-03-22T05:23:09.117Z,98.50
2018-03-22T05:25:37.371Z,98.50
2018-03-22T05:28:05.653Z,99.00
2018-03-22T05:30:33.907Z,98.60
2018-03-22T05:33:02.172Z,98.50
2018-03-22T05:35:31.406Z,98.40
2018-03-22T05:37:59.829Z,98.40
2018-03-22T05:40:28.103Z,98.40
2018-03-22T05:42:56.370Z,98.60
2018-03-22T05:45:24.635Z,98.80
2018-03-22T05:47:53.010Z,98.90
2018-03-22T05:50:21.254Z,98.90
2018-03-22T05:52:50.407Z,99.00
2018-03-22T05:55:19.529Z,99.20
2018-03-22T05:57:47.785Z,99.20
2018-03-22T06:00:20.174Z,99.00
2018-03-22T06:02:49.661Z,99.10
2018-03-22T06:05:17.926Z,99.20
2018-03-22T06:07:46.182Z,99.30
2018-03-22T06:10:14.476Z,99.20
2018-03-22T06:12:42.718Z,99.10
2018-03-22T06:15:10.986Z,99.10
2018-03-22T06:17:39.247Z,99.40
2018-03-22T06:20:07.704Z,99.20
2018-03-22T06:22:36.003Z,99.10
2018-03-22T06:25:04.303Z,98.90
2018-03-22T06:27:32.779Z,98.90
2018-03-22T06:30:06.384Z,98.90
2018-03-22T06:32:37.965Z,98.70
2018-03-22T06:35:06.233Z,98.60
2018-03-22T06:37:34.527Z,98.80
2018-03-22T06:40:02.811Z,98.80
2018-03-22T06:42:31.093Z,98.60
2018-03-22T06:44:59.357Z,98.60
2018-03-22T06:47:27.658Z,98.20
2018-03-22T06:49:55.942Z,97.80
2018-03-22T06:52:24.225Z,97.60
2018-03-22T06:54:53.271Z,98.20
2018-03-22T06:57:21.582Z,97.80
2018-03-22T06:59:49.849Z,97.60
2018-03-22T07:02:18.341Z,97.50
2018-03-22T07:04:46.594Z,97.10
2018-03-22T07:07:14.907Z,96.90
2018-03-22T07:09:43.164Z,96.80
2018-03-22T07:12:11.451Z,96.50
2018-03-22T07:14:39.802Z,96.30
2018-03-22T07:17:08.014Z,96.30
2018-03-22T07:19:36.354Z,95.90
2018-03-22T07:22:04.638Z,96.00
2018-03-22T07:24:32.875Z,96.00
2018-03-22T07:27:01.141Z,95.90
2018-03-22T07:29:29.450Z,95.70
2018-03-22T07:31:57.696Z,95.40
2018-03-22T07:34:25.943Z,94.90
2018-03-22T07:36:55.722Z,95.20
2018-03-22T07:39:23.991Z,95.20
2018-03-22T07:41:52.275Z,95.00
2018-03-22T07:44:26.163Z,94.80
2018-03-22T07:46:54.415Z,94.90
2018-03-22T07:49:22.763Z,94.90
2018-03-22T07:51:51.008Z,94.60
2018-03-22T07:54:19.283Z,94.60
2018-03-22T07:56:47.542Z,94.70
2018-03-22T07:59:16.570Z,94.70
2018-03-22T08:01:44.816Z,94.70
2018-03-22T08:04:13.078Z,94.40
2018-03-22T08:06:41.435Z,94.30
2018-03-22T08:09:09.715Z,94.20
2018-03-22T08:11:37.963Z,94.20
2018-03-22T08:14:06.235Z,94.00
2018-03-22T08:16:35.241Z,94.00
2018-03-22T08:19:03.587Z,94.00
2018-03-22T08:21:31.850Z,94.00
2018-03-22T08:24:00.099Z,93.70
2018-03-22T08:26:28.370Z,93.60
2018-03-22T08:28:57.417Z,93.60
2018-03-22T08:31:25.687Z,93.60
2018-03-22T08:33:53.936Z,93.80
2018-03-22T08:36:22.200Z,94.30
2018-03-22T08:38:51.205Z,95.10
2018-03-22T08:41:20.537Z,95.80
2018-03-22T08:43:49.088Z,95.80
2018-03-22T08:46:18.356Z,96.20
2018-03-22T08:48:46.891Z,96.20
2018-03-22T08:51:15.444Z,96.10
2018-03-22T08:53:44.258Z,96.70
2018-03-22T08:56:12.771Z,97.80
2018-03-22T08:58:42.046Z,99.10
2018-03-22T09:01:10.657Z,99.10
2018-03-22T09:03:39.359Z,99.40
2018-03-22T09:06:08.015Z,99.90
2018-03-22T09:08:36.370Z,99.90
2018-03-22T09:11:05.100Z,99.90
2018-03-22T09:13:33.386Z,99.90
2018-03-22T09:16:02.888Z,99.90
2018-03-22T09:18:31.931Z,99.90
2018-03-22T09:21:00.217Z,99.90
2018-03-22T09:23:28.482Z,99.90
2018-03-22T09:25:57.132Z,99.90
2018-03-22T09:28:25.357Z,99.90
2018-03-22T09:30:53.642Z,99.90
2018-03-22T09:33:21.892Z,99.90
2018-03-22T09:35:50.913Z,99.90
2018-03-22T09:38:19.957Z,99.90
2018-03-22T09:40:48.203Z,99.90
2018-03-22T09:43:16.462Z,99.90
2018-03-22T09:45:45.508Z,99.90
2018-03-22T09:48:13.813Z,99.90
2018-03-22T09:50:42.021Z,99.90
2018-03-22T09:53:11.115Z,99.90
2018-03-22T09:55:39.691Z,99.90
2018-03-22T09:58:08.145Z,99.90
2018-03-22T10:00:37.476Z,99.90
2018-03-22T10:03:05.859Z,99.90
2018-03-22T10:05:34.446Z,99.90
2018-03-22T10:08:03.909Z,99.90
2018-03-22T10:10:33.599Z,99.90
2018-03-22T10:13:02.259Z,99.90
2018-03-22T10:15:30.749Z,99.90
2018-03-22T10:20:37.808Z,99.90
2018-03-22T10:23:06.277Z,99.90
2018-03-22T10:25:34.583Z,99.90
2018-03-22T10:28:02.890Z,99.90
2018-03-22T10:30:31.157Z,99.90
2018-03-22T10:32:59.919Z,99.90
2018-03-22T10:35:28.257Z,99.90
2018-03-22T10:37:56.522Z,99.90
2018-03-22T10:40:24.775Z,99.90
2018-03-22T10:42:53.785Z,99.90
2018-03-22T10:45:22.069Z,99.90
2018-03-22T10:47:50.362Z,99.90
2018-03-22T10:50:18.659Z,99.90
2018-03-22T10:52:47.263Z,99.90
2018-03-22T10:55:16.161Z,99.90
2018-03-22T10:57:44.747Z,99.90
2018-03-22T11:00:19.089Z,99.90
2018-03-22T11:05:47.693Z,99.90
2018-03-22T11:08:17.143Z,99.90
2018-03-22T11:10:45.684Z,99.90
2018-03-22T11:13:14.017Z,99.90
2018-03-22T11:15:42.317Z,99.90
2018-03-22T11:18:10.561Z,99.90
2018-03-22T11:20:38.829Z,99.90
2018-03-22T11:23:07.836Z,99.90
2018-03-22T11:25:36.862Z,99.90
2018-03-22T11:28:05.113Z,99.90
2018-03-22T11:30:34.157Z,99.90
2018-03-22T11:33:02.430Z,99.90
2018-03-22T11:37:57.630Z,99.90
2018-03-22T11:40:26.116Z,99.90
2018-03-22T11:42:54.387Z,99.90
2018-03-22T11:45:23.436Z,99.90
2018-03-22T11:47:51.814Z,99.90
2018-03-22T11:50:20.387Z,99.90
2018-03-22T11:52:48.901Z,99.90
2018-03-22T11:55:17.157Z,99.90
2018-03-22T11:57:45.446Z,99.90
2018-03-22T12:00:13.716Z,99.90
2018-03-22T12:02:41.991Z,99.90
2018-03-22T12:05:10.291Z,99.90
2018-03-22T12:07:38.572Z,99.90
2018-03-22T12:10:06.850Z,99.90
2018-03-22T12:12:35.247Z,99.90
2018-03-22T12:15:03.494Z,99.90
2018-03-22T12:17:31.792Z,99.90
2018-03-22T12:20:00.088Z,99.90
2018-03-22T12:22:28.378Z,99.90
2018-03-22T12:24:56.641Z,99.90
2018-03-22T12:27:25.269Z,99.90
2018-03-22T12:29:54.318Z,99.90
2018-03-22T12:32:22.637Z,99.90
2018-03-22T12:34:50.882Z,99.90
2018-03-22T12:37:19.153Z,99.90
2018-03-22T12:39:47.403Z,99.90
2018-03-22T12:42:16.426Z,99.90
2018-03-22T12:44:44.726Z,99.90
2018-03-22T12:47:13.725Z,99.90
2018-03-22T12:49:41.989Z,99.90
2018-03-22T12:52:10.250Z,99.90
2018-03-22T12:54:39.266Z,99.90
2018-03-22T12:57:07.541Z,99.90
2018-03-22T12:59:36.377Z,99.90
2018-03-22T13:02:04.625Z,99.90
2018-03-22T13:04:32.914Z,99.90
2018-03-22T13:07:01.195Z,99.90
2018-03-22T13:09:29.465Z,99.90
2018-03-22T13:11:59.555Z,99.90
2018-03-22T13:14:27.822Z,99.90
2018-03-22T13:16:56.075Z,99.90
2018-03-22T13:19:24.561Z,99.90
2018-03-22T13:21:53.505Z,99.90
2018-03-22T13:24:21.784Z,99.90
2018-03-22T13:27:12.558Z,99.90
2018-03-22T13:29:50.190Z,99.90
2018-03-22T13:32:19.262Z,99.90
2018-03-22T13:34:49.224Z,99.90
2018-03-22T13:37:18.162Z,99.90
2018-03-22T13:39:46.423Z,99.90
2018-03-22T13:42:15.431Z,99.90
2018-03-22T13:44:44.476Z,99.90
2018-03-22T13:47:12.734Z,99.90
2018-03-22T13:49:41.016Z,99.90
2018-03-22T13:52:09.279Z,99.90
2018-03-22T13:54:37.562Z,99.90
2018-03-22T13:57:05.832Z,99.90
2018-03-22T13:59:34.106Z,99.90
2018-03-22T14:02:03.205Z,99.90
2018-03-22T14:04:32.239Z,99.90
2018-03-22T14:07:00.523Z,99.90
2018-03-22T14:09:28.787Z,99.90
2018-03-22T14:11:57.066Z,99.90
2018-03-22T14:14:25.310Z,99.90
2018-03-22T14:16:53.646Z,99.90
2018-03-22T14:19:21.946Z,99.90
2018-03-22T14:21:50.279Z,99.90
2018-03-22T14:24:19.324Z,99.90
2018-03-22T14:26:47.594Z,99.90
2018-03-22T14:29:15.876Z,99.90
2018-03-22T14:31:44.141Z,99.90
2018-03-22T14:34:12.432Z,99.90
2018-03-22T14:36:40.709Z,99.90
2018-03-22T14:39:08.972Z,99.90
2018-03-22T14:41:37.270Z,99.90
2018-03-22T14:44:05.535Z,99.90
2018-03-22T14:46:33.815Z,99.90
2018-03-22T14:49:02.840Z,99.90
2018-03-22T14:51:31.106Z,99.90
2018-03-22T14:53:59.412Z,99.90
2018-03-22T14:56:27.689Z,99.90
2018-03-22T14:58:56.470Z,99.90
2018-03-22T15:01:24.743Z,99.90
2018-03-22T15:03:53.013Z,99.90
2018-03-22T15:06:21.295Z,99.90
2018-03-22T15:08:51.181Z,99.90
2018-03-22T15:11:20.306Z,99.90
2018-03-22T15:13:48.598Z,99.90
2018-03-22T15:16:16.848Z,99.90
2018-03-22T15:18:45.887Z,99.90
2018-03-22T15:21:14.141Z,99.90
2018-03-22T15:23:42.424Z,99.90
2018-03-22T15:26:10.677Z,99.90
2018-03-22T15:28:38.937Z,99.90
2018-03-22T15:31:07.294Z,99.90
2018-03-22T15:33:35.560Z,99.90
2018-03-22T15:36:03.840Z,99.90
2018-03-22T15:38:32.156Z,99.90
2018-03-22T15:41:00.420Z,99.90
2018-03-22T15:43:29.481Z,99.90
2018-03-22T15:45:58.512Z,99.90
2018-03-22T15:48:26.789Z,99.90
2018-03-22T15:50:55.079Z,99.90
2018-03-22T15:53:23.480Z,99.90
2018-03-22T15:55:51.755Z,99.90
2018-03-22T15:58:20.016Z,99.90
2018-03-22T16:00:48.291Z,99.90
2018-03-22T16:03:16.592Z,99.90
2018-03-22T16:05:44.874Z,99.90
2018-03-22T16:08:13.131Z,99.90
2018-03-22T16:10:41.428Z,99.90
2018-03-22T16:13:09.866Z,99.90
2018-03-22T16:15:38.139Z,99.90
2018-03-22T16:18:06.401Z,99.90
2018-03-22T16:20:34.684Z,99.90
2018-03-22T16:23:02.985Z,99.90
2018-03-22T16:25:31.378Z,99.90
2018-03-22T16:28:00.237Z,99.90
2018-03-22T16:30:28.515Z,99.90
2018-03-22T16:32:56.793Z,99.90
2018-03-22T16:35:25.074Z,99.90
2018-03-22T16:37:53.316Z,99.90
2018-03-22T16:40:22.359Z,99.90
2018-03-22T16:42:50.655Z,99.90
2018-03-22T16:45:18.938Z,99.90
2018-03-22T16:47:47.221Z,99.90
2018-03-22T16:50:15.502Z,99.90
2018-03-22T16:52:43.796Z,99.90
2018-03-22T16:55:12.044Z,99.90
2018-03-22T16:57:40.324Z,99.90
2018-03-22T17:00:08.588Z,99.90
2018-03-22T17:02:36.899Z,99.90
2018-03-22T17:05:05.204Z,99.90
2018-03-22T17:07:33.474Z,99.90
2018-03-22T17:10:01.727Z,99.90
2018-03-22T17:12:30.040Z,99.90
2018-03-22T17:14:58.307Z,99.90
2018-03-22T17:17:26.615Z,99.90
2018-03-22T17:19:54.846Z,99.90
2018-03-22T17:22:23.200Z,99.90
2018-03-22T17:24:52.220Z,99.90
2018-03-22T17:27:20.550Z,99.90
2018-03-22T17:29:48.814Z,99.90
2018-03-22T17:32:17.074Z,99.90
2018-03-22T17:34:45.505Z,99.90
2018-03-22T17:37:14.560Z,99.90
2018-03-22T17:39:42.827Z,99.90
2018-03-22T17:42:11.123Z,99.90
2018-03-22T17:44:39.465Z,99.90
2018-03-22T17:47:07.935Z,99.90
2018-03-22T17:49:37.046Z,99.90
2018-03-22T17:52:06.830Z,99.90
2018-03-22T17:54:35.122Z,99.90
2018-03-22T17:57:03.420Z,99.90
2018-03-22T17:59:31.721Z,99.90
2018-03-22T18:02:00.748Z,99.90
2018-03-22T18:04:29.061Z,99.90
2018-03-22T18:06:57.310Z,99.90
2018-03-22T18:09:25.606Z,99.90
2018-03-22T18:11:53.858Z,99.90
2018-03-22T18:14:22.884Z,99.90
2018-03-22T18:16:51.202Z,99.90
2018-03-22T18:19:19.460Z,99.90
2018-03-22T18:21:47.733Z,99.90
2018-03-22T18:24:16.158Z,99.90
2018-03-22T18:26:44.427Z,99.90
2018-03-22T18:29:12.673Z,99.90
2018-03-22T18:31:40.959Z,99.90
2018-03-22T18:34:09.226Z,99.90
2018-03-22T18:36:37.546Z,99.90
2018-03-22T18:39:05.827Z,99.90
2018-03-22T18:41:34.092Z,99.90
2018-03-22T18:44:02.364Z,99.90
2018-03-22T18:49:40.423Z,99.90
2018-03-22T18:52:08.701Z,99.90
2018-03-22T18:54:36.948Z,99.90
2018-03-22T18:57:05.181Z,99.90
2018-03-22T18:59:33.425Z,99.90
2018-03-22T19:02:01.840Z,99.90
2018-03-22T19:04:32.085Z,99.90
2018-03-22T19:07:00.337Z,99.90
2018-03-22T19:09:28.585Z,99.90
2018-03-22T19:11:56.837Z,99.90
2018-03-22T19:14:25.838Z,99.90
2018-03-22T19:16:54.111Z,99.90
2018-03-22T19:19:23.127Z,99.90
2018-03-22T19:21:51.360Z,99.90
2018-03-22T19:24:19.616Z,99.90
2018-03-22T19:26:47.907Z,99.90
2018-03-22T19:29:16.945Z,99.90
2018-03-22T19:31:47.040Z,99.90
2018-03-22T19:34:15.248Z,99.90
2018-03-22T19:36:43.506Z,99.90
2018-03-22T19:39:12.559Z,99.90
2018-03-22T19:41:40.854Z,99.90
2018-03-22T19:44:09.872Z,99.90
2018-03-22T19:46:38.142Z,99.90
2018-03-22T19:49:07.166Z,99.90
2018-03-22T19:51:35.428Z,99.90
2018-03-22T19:54:03.673Z,99.90
2018-03-22T19:56:31.921Z,99.90
2018-03-22T19:59:00.198Z,99.90
2018-03-22T20:01:28.469Z,99.90
2018-03-22T20:03:58.082Z,99.90
2018-03-22T20:06:27.262Z,99.90
2018-03-22T20:08:55.504Z,99.90
2018-03-22T20:11:23.833Z,99.90
2018-03-22T20:13:52.090Z,99.90
2018-03-22T20:16:21.812Z,99.90
2018-03-22T20:18:50.092Z,99.90
2018-03-22T20:21:18.340Z,99.90
2018-03-22T20:23:47.501Z,99.90
2018-03-22T20:26:15.786Z,99.90
2018-03-22T20:28:44.266Z,99.90
2018-03-22T20:31:13.598Z,99.90
2018-03-22T20:33:41.849Z,99.90
2018-03-22T20:36:10.108Z,99.90
2018-03-22T20:38:38.520Z,99.90
2018-03-22T20:41:06.764Z,99.90
2018-03-22T20:43:35.900Z,99.90
2018-03-22T20:46:04.145Z,99.90
2018-03-22T20:48:33.441Z,99.90
2018-03-22T20:51:02.463Z,99.90
2018-03-22T20:53:30.719Z,99.90
2018-03-22T20:55:59.734Z,99.90
2018-03-22T20:58:27.969Z,99.90
2018-03-22T21:00:56.247Z,99.90
2018-03-22T21:03:24.496Z,99.90
2018-03-22T21:05:52.761Z,99.90
2018-03-22T21:08:21.005Z,99.90
2018-03-22T21:10:49.317Z,99.90
2018-03-22T21:13:18.141Z,99.90
2018-03-22T21:15:50.459Z,99.90
2018-03-22T21:18:18.806Z,99.90
2018-03-22T21:20:47.091Z,99.90
2018-03-22T21:23:15.291Z,99.90
2018-03-22T21:25:43.536Z,99.90
2018-03-22T21:28:11.909Z,99.90
2018-03-22T21:30:41.205Z,99.90
2018-03-22T21:33:09.687Z,99.90
2018-03-22T21:35:39.171Z,99.90
2018-03-22T21:38:07.535Z,99.90
2018-03-22T21:40:39.925Z,99.90
2018-03-22T21:43:08.205Z,99.90
2018-03-22T21:45:36.478Z,99.90
2018-03-22T21:48:04.710Z,99.90
2018-03-22T21:50:44.841Z,99.90
2018-03-22T21:53:13.889Z,99.90
2018-03-22T21:55:42.414Z,99.90
2018-03-22T21:58:10.969Z,99.90
2018-03-22T22:00:41.315Z,99.90
2018-03-22T22:03:11.879Z,99.90
2018-03-22T22:05:41.633Z,99.90
2018-03-22T22:08:10.287Z,99.90
2018-03-22T22:10:38.771Z,99.90
2018-03-22T22:13:14.240Z,99.90
2018-03-22T22:15:42.495Z,99.90
2018-03-22T22:18:10.728Z,99.90
2018-03-22T22:20:39.745Z,99.90
2018-03-22T22:23:07.989Z,99.90
2018-03-22T22:25:37.013Z,99.90
2018-03-22T22:28:05.252Z,99.90
2018-03-22T22:30:33.518Z,99.90
2018-03-22T22:33:01.768Z,99.90
2018-03-22T22:35:30.016Z,99.90
2018-03-22T22:37:58.253Z,99.90
2018-03-22T22:40:26.524Z,99.90
2018-03-22T22:42:54.766Z,99.90
2018-03-22T22:45:23.040Z,99.90
2018-03-22T22:47:51.271Z,99.90
2018-03-22T22:50:20.299Z,99.90
2018-03-22T22:52:48.552Z,99.90
2018-03-22T22:55:17.568Z,99.90
2018-03-22T22:57:45.812Z,99.90
2018-03-22T23:00:14.844Z,99.90
2018-03-22T23:02:43.080Z,99.90
2018-03-22T23:05:11.329Z,99.90
2018-03-22T23:07:39.570Z,99.90
2018-03-22T23:10:07.828Z,99.90
2018-03-22T23:12:36.075Z,99.90
2018-03-22T23:15:04.328Z,99.90
2018-03-22T23:17:32.578Z,99.90
2018-03-22T23:20:00.829Z,99.90
2018-03-22T23:22:29.841Z,99.90
2018-03-22T23:24:58.094Z,99.90
2018-03-22T23:27:27.105Z,99.90
2018-03-22T23:29:55.352Z,99.90
2018-03-22T23:32:24.358Z,99.90
2018-03-22T23:34:52.610Z,99.90
2018-03-22T23:37:20.845Z,99.90
2018-03-22T23:39:49.090Z,99.90
2018-03-22T23:42:18.102Z,99.90
2018-03-22T23:44:46.349Z,99.90
2018-03-22T23:47:15.343Z,99.90
2018-03-22T23:49:44.366Z,99.90
2018-03-22T23:52:12.604Z,99.90
2018-03-22T23:54:40.837Z,99.90
2018-03-22T23:57:09.087Z,99.90
2018-03-22T23:59:37.320Z,99.90
